Time;durP1;ratioP1;P1;durP2;ratioP2;P2;SDS_P1;SDS_P2;PMS_P1;PMS_P2;Temp;Humidity;BMP_temperature;BMP_pressure;BME280_temperature;BME280_humidity;BME280_pressure;Samples;Min_cycle;Max_cycle;Signal;HPM_P1;HPM_P2
2024/01/12 00:02:47;;;;;;;4.85;1.70;;;;;;;3.42;63.20;101831.72;10456730;28;20049;-58
2024/01/12 00:07:49;;;;;;;3.83;1.40;;;;;;;3.38;63.69;101836.38;10458959;28;20503;-58
2024/01/12 00:12:50;;;;;;;4.45;1.52;;;;;;;3.38;63.88;101834.56;10459369;28;20052;-58
2024/01/12 00:17:51;;;;;;;4.45;1.90;;;;;;;3.44;64.00;101837.81;10441750;28;20048;-59
2024/01/12 00:22:56;;;;;;;4.82;1.90;;;;;;;3.43;63.58;101834.28;10464083;28;20604;-59
2024/01/12 00:27:57;;;;;;;6.30;2.50;;;;;;;3.47;63.86;101845.56;10465350;28;20344;-59
2024/01/12 00:32:59;;;;;;;4.72;1.83;;;;;;;3.46;64.07;101846.53;10467161;28;20450;-59
2024/01/12 00:38:00;;;;;;;3.85;2.00;;;;;;;3.55;63.76;101838.88;10463023;28;20749;-59
2024/01/12 00:43:02;;;;;;;4.03;1.73;;;;;;;3.60;63.87;101843.91;10462623;28;20075;-59
2024/01/12 00:48:05;;;;;;;6.53;2.15;;;;;;;3.53;63.88;101848.72;10464715;28;20160;-59
2024/01/12 00:53:06;;;;;;;4.78;2.47;;;;;;;3.54;64.15;101849.59;10461465;28;20052;-59
2024/01/12 00:58:08;;;;;;;3.42;1.58;;;;;;;3.57;64.05;101855.59;10466336;28;20738;-59
2024/01/12 01:03:09;;;;;;;6.13;2.05;;;;;;;3.57;64.36;101863.56;10464952;28;20052;-59
2024/01/12 01:08:10;;;;;;;3.83;1.95;;;;;;;3.62;64.28;101865.06;10465967;28;20045;-59
2024/01/12 01:13:14;;;;;;;5.18;2.15;;;;;;;3.65;64.29;101859.56;10459106;28;20061;-59
2024/01/12 01:18:17;;;;;;;3.90;1.77;;;;;;;3.58;64.21;101862.59;10461884;28;20622;-59
2024/01/12 01:23:20;;;;;;;4.15;2.42;;;;;;;3.66;64.15;101859.47;10467651;28;20052;-59
2024/01/12 01:28:22;;;;;;;5.50;2.08;;;;;;;3.72;64.26;101868.88;10463429;28;20127;-59
2024/01/12 01:33:23;;;;;;;3.92;2.10;;;;;;;3.71;64.19;101864.50;10458984;28;20068;-59
2024/01/12 01:38:25;;;;;;;3.83;1.80;;;;;;;3.75;64.22;101866.00;10464077;28;20487;-59
2024/01/12 01:43:26;;;;;;;4.35;1.90;;;;;;;3.76;64.41;101865.94;10459866;28;20064;-59
2024/01/12 01:48:28;;;;;;;4.07;2.13;;;;;;;3.77;64.42;101858.78;10463904;28;20056;-59
2024/01/12 01:53:29;;;;;;;4.97;2.40;;;;;;;3.83;64.32;101855.78;10459786;28;20407;-60
2024/01/12 01:58:34;;;;;;;4.63;2.05;;;;;;;3.76;64.32;101852.63;10462744;28;20084;-61
2024/01/12 02:03:38;;;;;;;6.30;2.53;;;;;;;3.78;64.59;101852.53;10460197;28;20054;-61
2024/01/12 02:08:40;;;;;;;8.05;2.72;;;;;;;3.81;64.38;101867.44;10463331;28;20053;-60
2024/01/12 02:13:42;;;;;;;6.03;2.75;;;;;;;3.82;64.50;101851.41;10460464;28;20057;-60
2024/01/12 02:18:44;;;;;;;5.28;2.35;;;;;;;3.88;64.30;101855.50;10461721;28;20044;-60
2024/01/12 02:23:45;;;;;;;8.00;3.28;;;;;;;3.80;64.48;101847.97;10459585;28;20057;-60
2024/01/12 02:28:47;;;;;;;6.32;3.08;;;;;;;3.81;64.53;101852.38;10466405;28;20210;-61
2024/01/12 02:33:49;;;;;;;8.70;3.13;;;;;;;3.84;64.61;101848.66;10462746;28;20047;-61
2024/01/12 02:38:51;;;;;;;6.30;3.45;;;;;;;3.89;64.53;101844.75;10442265;28;20728;-62
2024/01/12 02:43:52;;;;;;;6.38;3.47;;;;;;;4.00;64.11;101844.06;10460206;28;20075;-61
2024/01/12 02:48:54;;;;;;;9.35;3.55;;;;;;;3.93;64.36;101848.06;10454787;28;20076;-61
2024/01/12 02:53:55;;;;;;;7.22;3.08;;;;;;;3.97;64.20;101845.13;10461368;28;20040;-61
2024/01/12 02:58:57;;;;;;;8.05;3.47;;;;;;;3.89;64.67;101846.53;10462875;28;20416;-60
2024/01/12 03:03:58;;;;;;;5.97;3.15;;;;;;;3.92;64.45;101838.38;10462029;28;20145;-58
2024/01/12 03:08:59;;;;;;;9.07;3.97;;;;;;;3.91;64.28;101849.97;10458810;28;20053;-59
2024/01/12 03:14:01;;;;;;;8.18;3.78;;;;;;;3.82;64.82;101851.41;10461266;28;20103;-59
2024/01/12 03:19:03;;;;;;;9.95;4.47;;;;;;;3.82;64.76;101835.44;10457826;28;20044;-59
2024/01/12 03:24:05;;;;;;;7.93;3.95;;;;;;;3.81;64.51;101839.06;10458820;28;20119;-59
2024/01/12 03:29:07;;;;;;;10.30;4.45;;;;;;;3.88;64.71;101840.38;10462135;28;20036;-60
2024/01/12 03:34:08;;;;;;;9.38;3.70;;;;;;;3.88;64.67;101840.38;10457387;28;20101;-59
2024/01/12 03:39:10;;;;;;;6.90;3.67;;;;;;;3.86;64.75;101846.75;10457744;28;20049;-59
2024/01/12 03:44:11;;;;;;;14.35;4.05;;;;;;;3.86;64.88;101854.72;10460053;28;20049;-59
2024/01/12 03:49:13;;;;;;;9.00;4.43;;;;;;;3.90;64.75;101850.94;10455469;28;20048;-59
2024/01/12 03:54:14;;;;;;;9.02;4.22;;;;;;;3.95;64.51;101854.16;10462254;28;20102;-59
2024/01/12 03:59:16;;;;;;;9.27;4.18;;;;;;;3.89;64.82;101841.22;10467902;28;20053;-59
2024/01/12 04:04:18;;;;;;;9.15;4.75;;;;;;;3.88;64.67;101845.69;10465282;28;20057;-59
2024/01/12 04:09:19;;;;;;;10.27;4.75;;;;;;;3.97;64.52;101849.59;10462621;28;20048;-59
2024/01/12 04:14:21;;;;;;;10.10;5.40;;;;;;;3.93;64.98;101851.59;10470062;28;20139;-58
2024/01/12 04:19:22;;;;;;;9.65;4.22;;;;;;;3.92;64.91;101849.03;10445072;28;20055;-58
2024/01/12 04:24:23;;;;;;;8.40;4.50;;;;;;;3.94;64.94;101847.13;10468891;28;20052;-59
2024/01/12 04:29:25;;;;;;;8.45;4.18;;;;;;;3.97;64.78;101850.44;10467557;28;20048;-58
2024/01/12 04:34:26;;;;;;;7.93;3.97;;;;;;;4.01;64.59;101837.81;10466182;28;20037;-57
2024/01/12 04:39:28;;;;;;;10.40;4.13;;;;;;;4.02;64.86;101842.16;10473708;28;20920;-58
2024/01/12 04:44:29;;;;;;;8.38;3.95;;;;;;;4.00;64.65;101854.72;10464458;28;20052;-58
2024/01/12 04:49:31;;;;;;;7.30;3.42;;;;;;;4.01;65.01;101867.09;10463595;28;20167;-58
2024/01/12 04:54:32;;;;;;;5.35;2.88;;;;;;;3.98;64.85;101860.13;10445887;28;20118;-58
2024/01/12 04:59:34;;;;;;;6.32;3.17;;;;;;;3.92;65.04;101855.19;10466068;28;20411;-58
2024/01/12 05:04:35;;;;;;;6.22;3.22;;;;;;;3.95;65.03;101855.00;10465291;28;20051;-58
2024/01/12 05:09:36;;;;;;;6.40;3.22;;;;;;;3.93;65.09;101853.38;10466389;28;20060;-58
2024/01/12 05:14:38;;;;;;;7.10;3.90;;;;;;;3.90;65.13;101851.78;10464106;28;20124;-58
2024/01/12 05:19:40;;;;;;;6.20;2.85;;;;;;;3.87;65.12;101846.66;10466312;28;20099;-58
2024/01/12 05:24:41;;;;;;;5.43;3.35;;;;;;;3.88;65.17;101843.03;10464515;28;20041;-59
2024/01/12 05:29:44;;;;;;;7.45;3.47;;;;;;;3.95;65.30;101832.88;10465137;28;20487;-59
2024/01/12 05:34:46;;;;;;;6.70;2.72;;;;;;;4.01;65.21;101824.50;10463129;28;20447;-58
2024/01/12 05:39:47;;;;;;;9.35;3.25;;;;;;;4.07;64.85;101828.56;10464537;28;20123;-58
2024/01/12 05:44:49;;;;;;;10.23;3.67;;;;;;;4.07;64.62;101828.56;10464152;28;20048;-59
2024/01/12 05:49:50;;;;;;;7.93;3.83;;;;;;;4.16;64.83;101814.69;10461247;28;20118;-59
2024/01/12 05:54:54;;;;;;;6.10;3.35;;;;;;;4.17;64.63;101817.25;10463789;28;20498;-59
2024/01/12 05:59:56;;;;;;;6.18;3.30;;;;;;;4.18;64.37;101826.09;10466297;28;20044;-59
2024/01/12 06:04:58;;;;;;;4.75;3.10;;;;;;;4.13;64.69;101830.88;10458707;28;20075;-58
2024/01/12 06:09:59;;;;;;;7.38;3.72;;;;;;;4.16;64.78;101839.47;10466465;28;20048;-59
2024/01/12 06:15:01;;;;;;;6.55;3.47;;;;;;;4.12;64.83;101847.78;10459707;28;20076;-59
2024/01/12 06:20:03;;;;;;;6.13;3.03;;;;;;;4.08;64.98;101846.25;10460002;28;20133;-59
2024/01/12 06:25:05;;;;;;;5.47;3.13;;;;;;;3.98;65.23;101851.28;10459056;28;20415;-59
2024/01/12 06:30:07;;;;;;;10.43;4.13;;;;;;;4.03;65.06;101846.56;10461672;28;20083;-58
2024/01/12 06:35:11;;;;;;;6.68;3.47;;;;;;;4.07;65.22;101856.06;10462413;28;20109;-59
2024/01/12 06:40:12;;;;;;;7.70;3.85;;;;;;;4.03;64.79;101866.97;10459878;28;20060;-59
2024/01/12 06:45:14;;;;;;;9.13;4.50;;;;;;;4.01;65.20;101859.09;10458786;28;20393;-58
2024/01/12 06:50:15;;;;;;;9.43;4.18;;;;;;;4.02;65.00;101865.28;10460186;28;20080;-59
2024/01/12 06:55:17;;;;;;;9.23;4.35;;;;;;;4.03;65.07;101873.16;10460768;28;20057;-58
2024/01/12 07:00:19;;;;;;;12.68;5.35;;;;;;;4.03;65.26;101885.59;10462745;28;20507;-58
2024/01/12 07:05:21;;;;;;;10.80;4.88;;;;;;;3.97;65.28;101884.19;10461187;28;20432;-58
2024/01/12 07:10:22;;;;;;;9.15;5.70;;;;;;;3.94;65.63;101881.69;10459628;28;20523;-59
2024/01/12 07:15:23;;;;;;;9.52;4.32;;;;;;;3.94;65.23;101873.72;10461075;28;20052;-58
2024/01/12 07:20:25;;;;;;;11.35;4.88;;;;;;;3.91;65.29;101892.53;10461170;28;20090;-61
2024/01/12 07:25:28;;;;;;;9.50;4.47;;;;;;;3.98;65.21;101896.53;10493432;28;20078;-63
2024/01/12 07:30:29;;;;;;;9.23;4.82;;;;;;;4.00;65.20;101897.28;10497236;28;20503;-60
2024/01/12 07:35:31;;;;;;;10.07;4.72;;;;;;;4.02;65.53;101892.72;10498694;28;20044;-60
2024/01/12 07:40:32;;;;;;;9.48;4.68;;;;;;;3.91;65.33;101888.06;10472539;28;20076;-66
2024/01/12 07:45:36;;;;;;;10.07;4.50;;;;;;;3.90;65.46;101899.66;10451975;28;20041;-65
2024/01/12 07:50:38;;;;;;;10.70;5.13;;;;;;;3.94;65.34;101897.66;10459764;28;20064;-66
2024/01/12 07:55:40;;;;;;;7.68;4.32;;;;;;;4.06;65.36;101893.38;10455866;28;20053;-66
2024/01/12 08:00:41;;;;;;;11.43;4.38;;;;;;;4.06;65.27;101888.91;10456563;28;20133;-66
2024/01/12 08:05:43;;;;;;;10.02;4.28;;;;;;;4.11;65.28;101891.31;10442661;28;20056;-67
2024/01/12 08:10:46;;;;;;;9.15;4.85;;;;;;;4.11;64.76;101902.81;10466718;28;20041;-66
2024/01/12 08:15:48;;;;;;;8.43;4.80;;;;;;;4.12;64.97;101885.88;10464804;28;20049;-66
2024/01/12 08:20:49;;;;;;;8.65;4.20;;;;;;;4.14;64.98;101897.28;10460625;28;20055;-66
2024/01/12 08:25:51;;;;;;;9.93;4.57;;;;;;;4.20;65.08;101893.38;10458740;28;20057;-67
2024/01/12 08:30:52;;;;;;;8.25;4.03;;;;;;;4.03;65.20;101914.84;10455418;28;20106;-66
2024/01/12 08:35:54;;;;;;;9.43;5.55;;;;;;;3.98;65.61;101915.16;10463054;28;20064;-67
2024/01/12 08:40:55;;;;;;;8.88;5.20;;;;;;;3.92;66.06;101910.22;10466066;28;20072;-67
2024/01/12 08:45:57;;;;;;;8.98;4.07;;;;;;;4.00;65.50;101912.41;10471535;28;20045;-66
2024/01/12 08:50:58;;;;;;;8.73;4.78;;;;;;;4.11;65.03;101920.59;10473981;28;20061;-68
2024/01/12 08:56:00;;;;;;;7.00;4.05;;;;;;;4.11;64.92;101921.44;10465903;28;20045;-67
2024/01/12 09:01:02;;;;;;;7.78;4.32;;;;;;;4.10;65.19;101919.69;10472452;28;20052;-67
2024/01/12 09:06:04;;;;;;;7.07;4.25;;;;;;;4.18;65.19;101914.75;10447940;28;20080;-66
2024/01/12 09:11:05;;;;;;;10.52;5.10;;;;;;;4.17;65.43;101917.53;10466921;28;20057;-66
2024/01/12 09:16:10;;;;;;;9.80;4.88;;;;;;;4.31;65.12;101924.66;10436578;28;20049;-72
2024/01/12 09:21:15;;;;;;;9.88;4.93;;;;;;;4.27;64.86;101923.16;10470337;28;20080;-75
2024/01/12 09:26:17;;;;;;;9.18;5.53;;;;;;;4.25;65.11;101930.38;10469170;28;20496;-74
2024/01/12 09:31:19;;;;;;;9.90;5.22;;;;;;;4.23;65.25;101924.28;10470194;28;20053;-74
2024/01/12 09:36:20;;;;;;;9.02;4.47;;;;;;;4.20;65.29;101924.47;10476089;28;20044;-73
2024/01/12 09:41:31;;;;;;;10.45;4.88;;;;;;;4.27;65.26;101920.47;10485529;28;20112;-72
2024/01/12 09:46:38;;;;;;;9.57;5.00;;;;;;;4.21;65.09;101927.03;10522010;28;20032;-72
2024/01/12 09:51:39;;;;;;;11.87;4.50;;;;;;;3.93;65.73;101920.75;10483347;28;20055;-69
2024/01/12 09:56:43;;;;;;;8.32;4.80;;;;;;;3.82;66.20;101928.53;10458338;28;20500;-69
2024/01/12 10:01:48;;;;;;;10.15;4.57;;;;;;;3.84;65.99;101923.13;10468739;28;20070;-70
2024/01/12 10:06:49;;;;;;;8.57;4.40;;;;;;;3.98;66.05;101939.09;10476292;28;20151;-67
2024/01/12 10:11:53;;;;;;;9.15;4.80;;;;;;;4.13;65.50;101947.94;10480360;28;20120;-67
2024/01/12 10:16:55;;;;;;;10.63;4.32;;;;;;;4.25;65.04;101938.34;10522223;28;20120;-67
2024/01/12 10:21:57;;;;;;;9.05;4.35;;;;;;;4.33;64.92;101922.75;10509050;28;20040;-66
2024/01/12 10:27:02;;;;;;;9.77;5.45;;;;;;;4.16;65.63;101932.63;10510916;28;20052;-68
2024/01/12 10:32:04;;;;;;;9.43;4.72;;;;;;;3.79;66.38;101926.03;10547328;28;20040;-67
2024/01/12 10:37:07;;;;;;;9.65;4.65;;;;;;;3.87;65.71;101929.13;10519920;28;20096;-67
2024/01/12 10:42:10;;;;;;;9.45;4.20;;;;;;;3.65;66.30;101918.06;10529891;28;20045;-65
2024/01/12 10:47:19;;;;;;;7.07;3.65;;;;;;;3.51;66.57;101905.59;10520560;28;20036;-66
2024/01/12 10:57:45;;;;;;;8.77;3.92;;;;;;;3.52;66.18;101905.50;12126786;22;20154;-89
2024/01/12 11:02:49;;;;;;;6.25;3.20;;;;;;;3.71;65.92;101902.59;10644031;22;20041;-88
2024/01/12 11:07:52;;;;;;;8.05;4.05;;;;;;;3.86;65.63;101894.63;10516646;22;20049;-68
2024/01/12 11:12:55;;;;;;;7.25;3.30;;;;;;;3.69;66.08;101895.63;10490235;28;20053;-67
2024/01/12 11:18:01;;;;;;;4.90;2.72;;;;;;;3.61;66.28;101908.56;10489379;28;20053;-67
2024/01/12 11:23:03;;;;;;;8.63;3.45;;;;;;;3.61;66.13;101895.25;10479809;28;20036;-67
2024/01/12 11:28:08;;;;;;;8.35;3.00;;;;;;;3.55;66.18;101897.34;10493906;28;20437;-67
2024/01/12 11:33:09;;;;;;;8.90;3.25;;;;;;;3.52;66.18;101891.34;10456173;28;20057;-65
2024/01/12 11:38:11;;;;;;;10.40;4.10;;;;;;;3.28;66.54;101894.53;10494751;28;20029;-68
2024/01/12 11:43:19;;;;;;;8.90;4.63;;;;;;;3.41;66.44;101876.03;10496350;28;20037;-67
2024/01/12 11:48:21;;;;;;;6.53;3.13;;;;;;;3.54;65.69;101871.69;10491613;28;20045;-68
2024/01/12 11:53:22;;;;;;;10.13;3.83;;;;;;;3.41;66.11;101873.38;10504563;28;20108;-68
2024/01/12 11:58:24;;;;;;;5.88;2.92;;;;;;;3.49;66.17;101863.13;10499984;28;20147;-67
2024/01/12 12:03:26;;;;;;;5.60;3.10;;;;;;;3.37;66.35;101851.44;10497154;28;20024;-68
2024/01/12 12:08:27;;;;;;;7.22;3.25;;;;;;;3.42;66.15;101840.56;10499958;28;20113;-68
2024/01/12 12:13:29;;;;;;;5.78;3.20;;;;;;;3.49;66.00;101833.03;10485954;28;20140;-67
2024/01/12 12:18:38;;;;;;;6.40;2.88;;;;;;;3.48;66.08;101824.22;10484259;28;20040;-69
2024/01/12 12:23:41;;;;;;;8.85;3.90;;;;;;;3.71;65.21;101817.50;10473108;28;20075;-68
2024/01/12 12:28:47;;;;;;;8.30;4.10;;;;;;;3.86;65.20;101825.47;10496096;28;20047;-67
2024/01/12 12:33:49;;;;;;;7.75;3.47;;;;;;;4.01;64.76;101813.00;10435365;28;20049;-70
2024/01/12 12:38:50;;;;;;;9.30;4.53;;;;;;;4.13;64.47;101813.09;10421821;28;20093;-71
2024/01/12 12:43:53;;;;;;;10.48;5.18;;;;;;;4.31;63.88;101816.38;10422667;28;20080;-70
2024/01/12 12:48:56;;;;;;;6.28;3.53;;;;;;;4.38;63.53;101795.50;10424864;28;20049;-71
2024/01/12 12:53:57;;;;;;;5.47;2.88;;;;;;;4.14;64.60;101803.28;10421796;28;20115;-71
2024/01/12 12:58:59;;;;;;;7.20;3.15;;;;;;;4.23;63.86;101807.19;10405140;28;20477;-70
2024/01/12 13:04:00;;;;;;;7.40;3.28;;;;;;;4.26;63.56;101785.69;10417625;28;20053;-68
2024/01/12 13:09:05;;;;;;;6.88;3.13;;;;;;;4.34;63.59;101786.03;10423651;28;20053;-69
2024/01/12 13:14:07;;;;;;;5.60;3.05;;;;;;;4.05;63.87;101791.44;10419668;28;20053;-69
2024/01/12 13:19:09;;;;;;;6.78;2.92;;;;;;;3.89;64.12;101780.03;10424829;28;20051;-68
2024/01/12 13:24:23;;;;;;;8.13;2.92;;;;;;;4.12;63.66;101783.91;10424125;28;20053;-68
2024/01/12 13:29:25;;;;;;;6.53;2.97;;;;;;;4.14;62.99;101774.84;10419050;28;20136;-69
2024/01/12 13:34:28;;;;;;;5.47;2.95;;;;;;;4.11;63.49;101766.25;10419637;28;20060;-69
2024/01/12 13:39:30;;;;;;;7.80;3.17;;;;;;;4.12;63.01;101778.59;10422239;28;20135;-68
2024/01/12 13:44:31;;;;;;;4.85;2.80;;;;;;;4.17;63.40;101774.69;10426573;28;20065;-69
2024/01/12 13:49:33;;;;;;;4.88;2.50;;;;;;;4.11;63.13;101753.78;10422388;28;20674;-69
2024/01/12 13:54:35;;;;;;;8.73;3.95;;;;;;;4.14;62.94;101742.94;10419692;28;20048;-68
2024/01/12 13:59:37;;;;;;;10.80;3.92;;;;;;;4.23;62.76;101749.47;10418629;28;20049;-69
2024/01/12 14:04:39;;;;;;;4.90;2.58;;;;;;;4.00;63.12;101742.97;10418078;28;20440;-69
2024/01/12 14:09:40;;;;;;;6.80;3.33;;;;;;;4.11;62.60;101740.47;10421738;28;20053;-68
2024/01/12 14:14:42;;;;;;;8.88;3.28;;;;;;;4.23;62.26;101743.31;10426737;28;20109;-69
2024/01/12 14:19:43;;;;;;;7.78;3.58;;;;;;;4.25;62.28;101747.56;10418134;28;20057;-69
2024/01/12 14:24:48;;;;;;;7.28;3.75;;;;;;;4.14;62.55;101756.22;10419906;28;20056;-69
2024/01/12 14:29:49;;;;;;;7.55;3.88;;;;;;;3.90;63.05;101768.47;10421838;28;20065;-68
2024/01/12 14:34:55;;;;;;;8.52;4.63;;;;;;;3.66;63.35;101773.53;10419503;28;20636;-68
2024/01/12 14:39:57;;;;;;;7.93;3.70;;;;;;;3.67;63.25;101772.56;10421223;28;20068;-69
2024/01/12 14:45:04;;;;;;;6.75;3.53;;;;;;;3.54;63.24;101773.34;10416694;28;20054;-69
2024/01/12 14:50:06;;;;;;;8.18;3.47;;;;;;;3.63;62.76;101766.56;10419804;28;20056;-68
2024/01/12 14:55:09;;;;;;;9.02;3.78;;;;;;;3.49;63.10;101778.06;10414194;28;20067;-67
2024/01/12 15:00:11;;;;;;;6.35;2.67;;;;;;;3.41;63.27;101774.19;10419563;28;20091;-68
2024/01/12 15:05:13;;;;;;;6.78;2.95;;;;;;;3.37;63.16;101769.03;10413110;28;20096;-67
2024/01/12 15:10:14;;;;;;;8.02;3.97;;;;;;;3.43;63.20;101775.78;10412839;28;20046;-67
2024/01/12 15:15:16;;;;;;;10.90;3.90;;;;;;;3.32;63.00;101794.22;10418934;28;20076;-68
2024/01/12 15:20:18;;;;;;;10.05;4.10;;;;;;;3.21;63.59;101802.81;10414430;28;20092;-67
2024/01/12 15:25:19;;;;;;;13.20;4.90;;;;;;;3.16;63.69;101802.28;10418537;28;20162;-69
2024/01/12 15:30:21;;;;;;;14.30;5.65;;;;;;;3.22;63.44;101811.66;10420004;28;20079;-67
2024/01/12 15:35:22;;;;;;;12.55;5.28;;;;;;;2.90;63.93;101817.06;10428436;23;20057;-69
2024/01/12 15:40:24;;;;;;;15.80;5.68;;;;;;;2.78;64.11;101819.53;10418810;28;20184;-67
2024/01/12 15:45:27;;;;;;;14.52;6.65;;;;;;;2.72;64.02;101826.97;10420572;28;20060;-67
2024/01/12 15:50:28;;;;;;;14.05;5.28;;;;;;;2.71;64.19;101818.16;10427217;28;20065;-69
2024/01/12 15:55:30;;;;;;;13.27;5.63;;;;;;;2.68;64.66;101814.81;10421910;28;20107;-68
2024/01/12 16:00:32;;;;;;;17.45;6.35;;;;;;;2.61;64.45;101819.63;10432996;28;20515;-61
2024/01/12 16:05:33;;;;;;;17.00;7.10;;;;;;;2.53;64.88;101816.56;10484202;28;20053;-62
2024/01/12 16:10:35;;;;;;;20.40;7.50;;;;;;;2.52;64.98;101818.34;10477519;28;20050;-61
2024/01/12 16:15:38;;;;;;;14.98;5.57;;;;;;;2.58;64.65;101825.94;10477249;28;20041;-61
2024/01/12 16:20:40;;;;;;;13.30;5.28;;;;;;;2.52;64.84;101813.03;10477525;28;20048;-62
2024/01/12 16:25:41;;;;;;;14.32;5.18;;;;;;;2.43;65.49;101825.97;10496134;28;20045;-61
2024/01/12 16:30:44;;;;;;;12.00;5.05;;;;;;;2.61;64.91;101809.00;10440565;28;20136;-58
2024/01/12 16:35:45;;;;;;;9.25;3.90;;;;;;;2.46;65.56;101813.38;10417561;28;20057;-58
2024/01/12 16:40:47;;;;;;;10.52;4.60;;;;;;;2.35;65.29;101818.44;10428496;28;20041;-58
2024/01/12 16:45:48;;;;;;;8.85;3.80;;;;;;;2.37;66.05;101819.25;10421277;28;20076;-59
2024/01/12 16:50:49;;;;;;;10.90;3.92;;;;;;;2.48;65.64;101808.00;10419110;28;20397;-57
2024/01/12 16:55:51;;;;;;;12.43;4.65;;;;;;;2.64;65.33;101805.31;10418385;28;20399;-58
2024/01/12 17:00:52;;;;;;;11.23;4.07;;;;;;;2.91;64.43;101795.75;10419296;28;20041;-58
2024/01/12 17:05:54;;;;;;;14.38;5.82;;;;;;;2.85;64.67;101801.41;10425302;28;20041;-57
2024/01/12 17:10:55;;;;;;;17.75;5.88;;;;;;;3.08;64.62;101797.41;10417879;28;20095;-59
2024/01/12 17:15:57;;;;;;;11.35;4.30;;;;;;;3.14;64.17;101797.03;10420770;28;20046;-58
2024/01/12 17:20:58;;;;;;;12.55;4.63;;;;;;;3.01;64.71;101782.78;10417656;28;20060;-58
2024/01/12 17:26:08;;;;;;;13.52;4.65;;;;;;;3.05;64.50;101791.41;10414984;28;20175;-58
2024/01/12 17:31:09;;;;;;;10.43;4.35;;;;;;;3.12;64.44;101775.03;10415543;28;20500;-59
2024/01/12 17:36:11;;;;;;;12.55;5.80;;;;;;;3.03;64.79;101774.72;10417921;28;20045;-58
2024/01/12 17:41:15;;;;;;;11.55;4.60;;;;;;;3.02;64.75;101771.22;10399759;28;20080;-58
2024/01/12 17:46:16;;;;;;;10.57;4.88;;;;;;;3.00;64.86;101773.06;10415276;28;20424;-59
2024/01/12 17:51:18;;;;;;;15.38;6.30;;;;;;;3.02;64.93;101768.56;10421338;28;20056;-58
2024/01/12 17:56:21;;;;;;;12.15;5.45;;;;;;;3.00;64.88;101757.13;10419878;28;20045;-58
2024/01/12 18:01:23;;;;;;;12.32;4.32;;;;;;;3.04;64.85;101741.88;10415233;28;20068;-58
2024/01/12 18:06:24;;;;;;;10.30;4.15;;;;;;;3.08;64.71;101754.03;10414544;28;20060;-58
2024/01/12 18:11:26;;;;;;;9.82;3.97;;;;;;;3.14;64.22;101764.28;10412574;28;20549;-57
2024/01/12 18:16:28;;;;;;;10.38;4.32;;;;;;;3.13;64.71;101759.94;10418702;28;20073;-58
2024/01/12 18:21:30;;;;;;;10.93;4.63;;;;;;;3.08;64.92;101760.22;10422766;28;20048;-58
2024/01/12 18:26:32;;;;;;;11.82;4.60;;;;;;;3.14;64.75;101761.63;10419571;28;20543;-59
2024/01/12 18:31:35;;;;;;;13.48;5.00;;;;;;;3.06;64.89;101771.88;10416224;28;20045;-59
2024/01/12 18:36:36;;;;;;;11.55;4.97;;;;;;;2.89;65.40;101772.88;10411006;28;20671;-59
2024/01/12 18:41:38;;;;;;;10.10;5.55;;;;;;;2.82;65.59;101776.84;10412923;28;20053;-59
2024/01/12 18:46:39;;;;;;;12.80;5.30;;;;;;;2.90;65.21;101779.88;10421964;28;20071;-58
2024/01/12 18:51:41;;;;;;;17.20;7.82;;;;;;;2.87;65.44;101777.44;10416135;28;20607;-59
2024/01/12 18:56:43;;;;;;;17.73;7.97;;;;;;;2.85;65.26;101768.72;10411080;28;20045;-59
2024/01/12 19:01:44;;;;;;;21.52;9.32;;;;;;;2.82;65.13;101768.88;10416968;28;20048;-58
2024/01/12 19:06:46;;;;;;;18.88;7.97;;;;;;;2.81;65.24;101760.06;10417475;28;20075;-58
2024/01/12 19:11:47;;;;;;;20.45;8.00;;;;;;;2.79;65.11;101759.28;10416259;28;20161;-58
2024/01/12 19:16:49;;;;;;;20.55;8.60;;;;;;;2.77;65.43;101762.03;10414334;28;20064;-58
2024/01/12 19:21:51;;;;;;;15.48;7.57;;;;;;;2.79;65.29;101759.28;10419947;28;20049;-58
2024/01/12 19:26:52;;;;;;;19.08;7.97;;;;;;;2.74;65.56;101745.44;10409218;28;20922;-58
2024/01/12 19:31:54;;;;;;;17.35;7.40;;;;;;;2.71;65.81;101742.97;10416857;28;20060;-59
2024/01/12 19:36:55;;;;;;;18.05;7.93;;;;;;;2.72;65.50;101752.63;10416715;28;20050;-58
2024/01/12 19:41:57;;;;;;;22.02;10.00;;;;;;;2.75;65.89;101749.81;10415051;28;20053;-58
2024/01/12 19:46:59;;;;;;;20.40;9.23;;;;;;;2.92;65.66;101738.16;10415521;28;20047;-59
2024/01/12 19:52:00;;;;;;;20.88;8.18;;;;;;;2.96;65.35;101745.88;10422980;28;20057;-58
2024/01/12 19:57:02;;;;;;;21.25;8.73;;;;;;;2.96;65.01;101740.56;10418398;28;20063;-58
2024/01/12 20:02:04;;;;;;;17.42;7.90;;;;;;;2.98;65.18;101738.66;10415864;28;20053;-59
2024/01/12 20:07:06;;;;;;;21.20;9.02;;;;;;;2.83;65.71;101733.41;10413737;28;20076;-58
2024/01/12 20:12:08;;;;;;;23.70;9.43;;;;;;;2.87;65.44;101743.75;10417199;28;20053;-59
2024/01/12 20:17:09;;;;;;;16.50;8.43;;;;;;;2.97;65.49;101738.75;10397964;28;20061;-59
2024/01/12 20:22:12;;;;;;;18.10;7.28;;;;;;;3.00;65.43;101729.72;10416766;28;20057;-59
2024/01/12 20:27:13;;;;;;;20.75;9.27;;;;;;;2.97;65.34;101730.78;10416265;28;20056;-59
2024/01/12 20:32:15;;;;;;;19.10;8.45;;;;;;;3.04;65.80;101725.94;10421106;28;20053;-58
2024/01/12 20:37:17;;;;;;;17.65;8.63;;;;;;;2.97;65.85;101736.94;10422283;28;20084;-59
2024/01/12 20:42:19;;;;;;;18.77;8.10;;;;;;;2.92;65.68;101717.78;10426171;28;20056;-59
2024/01/12 20:47:24;;;;;;;21.23;8.55;;;;;;;2.97;65.85;101718.34;10420086;28;20059;-60
2024/01/12 20:52:27;;;;;;;15.90;6.88;;;;;;;2.91;65.65;101715.22;10418569;28;20057;-59
2024/01/12 20:57:28;;;;;;;20.40;7.95;;;;;;;2.84;66.36;101719.19;10416058;28;20059;-59
2024/01/12 21:02:30;;;;;;;21.52;8.43;;;;;;;3.00;66.55;101711.13;10419242;28;20052;-59
2024/01/12 21:07:31;;;;;;;19.13;8.32;;;;;;;3.11;65.70;101720.16;10417646;28;20049;-59
2024/01/12 21:12:33;;;;;;;20.67;8.27;;;;;;;3.08;65.67;101706.22;10415642;28;20045;-59
2024/01/12 21:17:37;;;;;;;22.23;8.50;;;;;;;3.02;66.02;101704.81;10417975;28;20045;-59
2024/01/12 21:22:39;;;;;;;17.48;7.75;;;;;;;2.99;65.75;101702.31;10418746;28;20081;-59
2024/01/12 21:27:44;;;;;;;15.88;6.70;;;;;;;3.01;65.79;101708.41;10418627;28;20048;-59
2024/01/12 21:32:45;;;;;;;16.73;7.88;;;;;;;3.05;65.58;101711.72;10415214;28;20060;-59
2024/01/12 21:37:47;;;;;;;15.15;7.10;;;;;;;3.05;65.67;101707.25;10418178;28;20052;-59
2024/01/12 21:42:49;;;;;;;21.85;8.85;;;;;;;2.95;65.81;101692.84;10421026;28;20052;-58
2024/01/12 21:47:50;;;;;;;25.13;8.73;;;;;;;2.95;66.09;101692.84;10414739;28;20037;-59
2024/01/12 21:52:52;;;;;;;16.77;7.53;;;;;;;2.98;65.97;101688.19;10416651;28;20044;-59
2024/01/12 21:57:53;;;;;;;17.67;7.55;;;;;;;2.91;65.84;101686.00;10419652;28;20041;-59
2024/01/12 22:02:54;;;;;;;24.15;9.25;;;;;;;2.96;65.61;101684.78;10419673;28;20052;-59
2024/01/12 22:07:56;;;;;;;21.77;7.93;;;;;;;2.94;65.65;101683.16;10413008;28;20139;-60
2024/01/12 22:12:57;;;;;;;19.73;9.23;;;;;;;2.97;65.74;101681.16;10419324;28;20046;-59
2024/01/12 22:17:59;;;;;;;20.85;9.30;;;;;;;3.04;65.61;101660.41;10419306;28;20061;-59
2024/01/12 22:23:01;;;;;;;20.98;8.30;;;;;;;3.22;65.41;101665.50;10415472;28;20076;-59
2024/01/12 22:28:02;;;;;;;19.48;8.07;;;;;;;3.20;65.24;101654.13;10417564;28;20491;-59
2024/01/12 22:33:04;;;;;;;23.00;8.88;;;;;;;3.34;65.13;101657.63;10413886;28;20052;-59
2024/01/12 22:38:06;;;;;;;21.58;9.10;;;;;;;3.35;64.80;101651.34;10413338;28;20137;-59
2024/01/12 22:43:09;;;;;;;19.17;7.90;;;;;;;3.40;65.36;101658.19;10420629;28;20507;-59
2024/01/12 22:48:11;;;;;;;23.65;8.70;;;;;;;3.40;65.33;101652.88;10418624;28;20517;-59
2024/01/12 22:53:12;;;;;;;20.25;8.57;;;;;;;3.35;65.07;101639.88;10417031;28;20132;-59
2024/01/12 22:58:15;;;;;;;26.90;10.23;;;;;;;3.33;65.36;101639.97;10423892;22;20087;-82
2024/01/12 23:03:16;;;;;;;22.17;8.88;;;;;;;3.42;65.25;101635.88;10401744;28;20463;-82
2024/01/12 23:08:18;;;;;;;28.52;10.20;;;;;;;3.31;65.24;101631.25;10417542;28;20053;-82
2024/01/12 23:13:20;;;;;;;19.42;9.30;;;;;;;3.24;65.40;101629.06;10426397;28;20052;-82
2024/01/12 23:18:22;;;;;;;21.52;9.45;;;;;;;3.24;65.48;101624.63;10403002;28;20400;-82
2024/01/12 23:23:23;;;;;;;22.05;9.70;;;;;;;3.29;65.30;101634.94;10406348;28;20554;-82